Big Delta, AK

12:23 AM AKDT on August 04, 2015 (GMT -0800)
AK_Meso | | Change Station
CLOSE
Current Station
Personal Weather Station
Location: Delta Junction, AK
Elevation: 1935 ft
Nearby Weather Stations

Elev 1935 ft 63.82 °N, 145.88 °W | Updated 2 days ago

Partly Cloudy
Partly Cloudy
56 °F
Feels Like 56 °F
N
5
Wind Variable Wind from SSE
Gusts mph

Today
High -- | Low -- °F
--% Chance of Precip.
Yesterday
High -- | Low -- °F
Precip. -- in
5:02 AM 10:34 PM
Waning Gibbous, 79% visible
Pressure 30.05 in
Visibility 10.0 miles
Clouds Clear
Dew Point 51 °F
Humidity 85%
Rainfall in
Snow Depth Not available.
UV 0 out of 12
Pollen Not available.
Air Quality Not available.
Flu Activity Not available.
METAR PABI 040753Z AUTO 00000KT 10SM CLR 16/12 A3005 RMK AO2 SLP174 T01560117 TSNO

More Conditions Fewer Conditions

Pressure 30.05 in
Visibility 10.0 miles
Clouds Clear
Dew Point 51 °F
Humidity 85%
Rainfall in
Snow Depth Not available.
UV 0 out of 12
Pollen Not available.
Air Quality Not available.
Flu Activity Not available.
METAR PABI 040753Z AUTO 00000KT 10SM CLR 16/12 A3005 RMK AO2 SLP174 T01560117 TSNO

More Conditions Fewer Conditions

10-Day Weather Forecast

×

Almanac

Astronomy

Aug. 04, 2015 Rise Set
Actual Time
Civil Twilight
Nautical Twilight
Astronomical Twilight
Moon
Length of Visible Light
Length of Day
Tomorrow will be .
, % of the Moon is Illuminated

Today's Extremes

State Highs State Lows

Community

WunderPhotos

Upload Photos

1,843,877 photos uploaded!

WunderBlogs® & News

Nearby

Air Quality

  Air Quality AQ Index Pollutant
Not available.

Snow Depth

Station Depth Elevation

Earthquake Activity

City Distance Mag. Time & Date
Minimum magnitude displayed is 2.5.

Coastal Water Temperatures

Place Temperature

Stations

Nearby Weather Stations

Station Location Temp. Windchill Dew Point Humidity Wind Precip. Elev Updated Type